Time;durP1;ratioP1;P1;durP2;ratioP2;P2;SDS_P1;SDS_P2;PMS_P1;PMS_P2;Temp;Humidity;BMP_temperature;BMP_pressure;BME280_temperature;BME280_humidity;BME280_pressure;Samples;Min_cycle;Max_cycle;Signal;HPM_P1;HPM_P2
2022/09/09 00:02:21;;;;;;;;;;;17.30;99.90;;;;;;5037217;28;19928;-79
2022/09/09 00:05:14;;;;;;;;;;;17.30;99.90;;;;;;5046441;28;19913;-79
2022/09/09 00:07:50;;;;;;;;;;;17.20;99.90;;;;;;5034439;28;20414;-80
2022/09/09 00:10:18;;;;;;;;;;;17.20;99.90;;;;;;5012270;28;19924;-80
2022/09/09 00:13:16;;;;;;;;;;;17.30;99.90;;;;;;5050065;28;20432;-80
2022/09/09 00:15:42;;;;;;;;;;;17.30;99.90;;;;;;5049254;28;19924;-80
2022/09/09 00:18:23;;;;;;;;;;;17.30;99.90;;;;;;5048743;28;19916;-81
2022/09/09 00:20:50;;;;;;;;;;;17.20;99.90;;;;;;5044423;28;19920;-80
2022/09/09 00:23:27;;;;;;;;;;;17.10;99.90;;;;;;5049334;28;20160;-79
2022/09/09 00:25:56;;;;;;;;;;;17.20;99.90;;;;;;5061187;28;19930;-79
2022/09/09 00:28:25;;;;;;;;;;;17.10;99.90;;;;;;5048702;28;19920;-80
2022/09/09 00:30:51;;;;;;;;;;;17.00;99.90;;;;;;5057193;28;19936;-80
2022/09/09 00:33:18;;;;;;;;;;;17.00;99.90;;;;;;5038559;28;19925;-80
2022/09/09 00:35:46;;;;;;;;;;;17.10;99.90;;;;;;5045945;28;20465;-79
2022/09/09 00:38:17;;;;;;;;;;;17.10;99.90;;;;;;5049434;28;20019;-80
2022/09/09 00:40:52;;;;;;;;;;;17.00;99.90;;;;;;5050568;28;19924;-80
2022/09/09 00:43:26;;;;;;;;;;;17.10;99.90;;;;;;5055637;28;20008;-79
2022/09/09 00:45:51;;;;;;;;;;;17.00;99.90;;;;;;5054299;28;19920;-80
2022/09/09 00:48:17;;;;;;;;;;;16.80;99.90;;;;;;5044683;28;19923;-79
2022/09/09 00:50:55;;;;;;;;;;;16.70;99.90;;;;;;5049934;28;19927;-80
2022/09/09 00:53:32;;;;;;;;;;;16.60;99.90;;;;;;5052213;28;19943;-80
2022/09/09 00:55:58;;;;;;;;;;;16.50;99.90;;;;;;5056254;28;19916;-79
2022/09/09 00:58:24;;;;;;;;;;;16.50;99.90;;;;;;5051678;28;19965;-79
2022/09/09 01:00:57;;;;;;;;;;;16.60;99.90;;;;;;5057395;28;20687;-79
2022/09/09 01:03:33;;;;;;;;;;;16.60;99.90;;;;;;5059616;28;20458;-80
2022/09/09 01:06:16;;;;;;;;;;;16.40;99.90;;;;;;5049148;28;19928;-78
2022/09/09 01:08:53;;;;;;;;;;;16.30;99.90;;;;;;5051036;28;19916;-80
2022/09/09 01:11:25;;;;;;;;;;;16.40;99.90;;;;;;5052295;28;19960;-80
2022/09/09 01:13:58;;;;;;;;;;;16.30;99.90;;;;;;5053790;28;20691;-80
2022/09/09 01:16:24;;;;;;;;;;;16.10;99.90;;;;;;5051989;28;19917;-79
2022/09/09 01:18:52;;;;;;;;;;;16.00;99.90;;;;;;5051148;28;19916;-80
2022/09/09 01:21:37;;;;;;;;;;;16.00;99.90;;;;;;5049873;28;19925;-80
2022/09/09 01:24:06;;;;;;;;;;;16.10;99.90;;;;;;5080769;28;20553;-79
2022/09/09 01:26:37;;;;;;;;;;;16.20;99.90;;;;;;5047828;28;20182;-80
2022/09/09 01:29:02;;;;;;;;;;;16.20;99.90;;;;;;5051545;28;19920;-81
2022/09/09 01:31:31;;;;;;;;;;;16.20;99.90;;;;;;5057261;28;19923;-81
2022/09/09 01:33:56;;;;;;;;;;;16.10;99.90;;;;;;5051210;28;20393;-79
2022/09/09 01:36:50;;;;;;;;;;;16.00;99.90;;;;;;5047690;28;19932;-80
2022/09/09 01:39:15;;;;;;;;;;;15.90;99.90;;;;;;5031254;28;19965;-79
2022/09/09 01:41:41;;;;;;;;;;;15.90;99.90;;;;;;5033264;28;20632;-80
2022/09/09 01:44:07;;;;;;;;;;;15.80;99.90;;;;;;5031453;28;20001;-79
2022/09/09 01:46:33;;;;;;;;;;;15.70;99.90;;;;;;5033699;28;20020;-79
2022/09/09 01:48:59;;;;;;;;;;;15.70;99.90;;;;;;5032103;28;20058;-79
2022/09/09 01:51:25;;;;;;;;;;;15.70;99.90;;;;;;5032796;28;20751;-80
2022/09/09 01:53:50;;;;;;;;;;;15.70;99.90;;;;;;5033094;28;19927;-79
2022/09/09 01:56:22;;;;;;;;;;;15.70;99.90;;;;;;5036110;28;19917;-79
2022/09/09 01:58:56;;;;;;;;;;;15.70;99.90;;;;;;5037189;28;19916;-80
2022/09/09 02:01:37;;;;;;;;;;;15.70;99.90;;;;;;5038212;28;19925;-79
2022/09/09 02:04:07;;;;;;;;;;;15.60;99.90;;;;;;5038664;28;19917;-79
2022/09/09 02:06:34;;;;;;;;;;;15.50;99.90;;;;;;5035860;28;20810;-80
2022/09/09 02:09:01;;;;;;;;;;;15.60;99.90;;;;;;5033685;28;19920;-79
2022/09/09 02:11:28;;;;;;;;;;;15.50;99.90;;;;;;5035422;28;21426;-80
2022/09/09 02:13:57;;;;;;;;;;;15.50;99.90;;;;;;5036013;28;20018;-79
2022/09/09 02:16:28;;;;;;;;;;;15.50;99.90;;;;;;5044528;28;19920;-79
2022/09/09 02:19:13;;;;;;;;;;;15.50;99.90;;;;;;5055195;28;19920;-80
2022/09/09 02:21:39;;;;;;;;;;;15.80;99.90;;;;;;5052353;28;19936;-80
2022/09/09 02:24:09;;;;;;;;;;;16.20;99.90;;;;;;5053311;28;19923;-80
2022/09/09 02:26:36;;;;;;;;;;;16.30;99.90;;;;;;5055609;28;19916;-79
2022/09/09 02:29:03;;;;;;;;;;;16.30;99.90;;;;;;5053954;28;19916;-79
2022/09/09 02:31:28;;;;;;;;;;;16.20;99.90;;;;;;5075152;28;20377;-80
2022/09/09 02:33:58;;;;;;;;;;;16.40;99.90;;;;;;5056633;28;19917;-79
2022/09/09 02:36:25;;;;;;;;;;;16.40;99.90;;;;;;5056074;28;19967;-80
2022/09/09 02:38:53;;;;;;;;;;;16.30;99.90;;;;;;5049402;28;19921;-79
2022/09/09 02:41:33;;;;;;;;;;;16.40;99.90;;;;;;5054841;28;20590;-80
2022/09/09 02:43:59;;;;;;;;;;;16.40;99.90;;;;;;5052074;28;19922;-79
2022/09/09 02:46:24;;;;;;;;;;;16.40;99.90;;;;;;5076304;28;19916;-80
2022/09/09 02:49:01;;;;;;;;;;;16.50;99.90;;;;;;5063289;28;20297;-80
2022/09/09 02:51:30;;;;;;;;;;;16.50;99.90;;;;;;5053705;28;19937;-79
2022/09/09 02:54:00;;;;;;;;;;;16.50;99.90;;;;;;5086040;27;20007;-80
2022/09/09 02:56:28;;;;;;;;;;;16.30;99.90;;;;;;5053483;28;19917;-80
2022/09/09 02:58:54;;;;;;;;;;;16.40;99.90;;;;;;5047912;28;19929;-80
2022/09/09 03:01:20;;;;;;;;;;;16.40;99.90;;;;;;5067726;28;20343;-80
2022/09/09 03:03:46;;;;;;;;;;;16.50;99.90;;;;;;5063618;28;19923;-80
2022/09/09 03:06:11;;;;;;;;;;;16.50;99.90;;;;;;5051510;28;19917;-81
2022/09/09 03:08:37;;;;;;;;;;;16.50;99.90;;;;;;5052677;28;20278;-80
2022/09/09 03:11:03;;;;;;;;;;;16.40;99.90;;;;;;5060981;28;19916;-80
2022/09/09 03:13:28;;;;;;;;;;;16.40;99.90;;;;;;5051075;28;19922;-80
2022/09/09 03:15:54;;;;;;;;;;;16.40;99.90;;;;;;5065808;28;19955;-79
2022/09/09 03:18:20;;;;;;;;;;;16.30;99.90;;;;;;5054990;28;19917;-80
2022/09/09 03:20:48;;;;;;;;;;;16.20;99.90;;;;;;5056272;28;19929;-80
2022/09/09 03:23:13;;;;;;;;;;;16.30;99.90;;;;;;5056068;28;19923;-80
2022/09/09 03:25:39;;;;;;;;;;;16.30;99.90;;;;;;5052436;28;19916;-79
2022/09/09 03:28:05;;;;;;;;;;;16.10;99.90;;;;;;5085249;27;19997;-80
2022/09/09 03:30:30;;;;;;;;;;;16.00;99.90;;;;;;5065507;28;19959;-80
2022/09/09 03:32:56;;;;;;;;;;;16.00;99.90;;;;;;5052193;28;20301;-80
2022/09/09 03:35:22;;;;;;;;;;;16.00;99.90;;;;;;5054638;28;19917;-79
2022/09/09 03:37:47;;;;;;;;;;;16.10;99.90;;;;;;5053719;28;19959;-80
2022/09/09 03:40:13;;;;;;;;;;;16.20;99.90;;;;;;5053449;28;19921;-79
2022/09/09 03:42:38;;;;;;;;;;;16.30;99.90;;;;;;5049017;28;20003;-80
2022/09/09 03:45:09;;;;;;;;;;;16.30;99.90;;;;;;5050853;28;20487;-80
2022/09/09 03:47:34;;;;;;;;;;;16.30;99.90;;;;;;5049339;28;19974;-80
2022/09/09 03:50:00;;;;;;;;;;;16.30;99.90;;;;;;5054009;28;19930;-80
2022/09/09 03:52:26;;;;;;;;;;;16.00;99.90;;;;;;5048005;28;19994;-80
2022/09/09 03:54:52;;;;;;;;;;;16.00;99.90;;;;;;5049310;28;19932;-80
2022/09/09 03:57:18;;;;;;;;;;;15.90;99.90;;;;;;5049012;28;19942;-80
2022/09/09 03:59:43;;;;;;;;;;;15.70;99.90;;;;;;5055928;28;20647;-80
2022/09/09 04:02:09;;;;;;;;;;;15.60;99.90;;;;;;5061388;28;19924;-80
2022/09/09 04:04:35;;;;;;;;;;;15.60;99.90;;;;;;5069761;28;19916;-79
2022/09/09 04:07:00;;;;;;;;;;;15.50;99.90;;;;;;5054967;28;20369;-80
2022/09/09 04:09:26;;;;;;;;;;;15.40;99.90;;;;;;5050619;28;20463;-80
2022/09/09 04:11:52;;;;;;;;;;;15.50;99.90;;;;;;5048834;28;19999;-79
2022/09/09 04:14:18;;;;;;;;;;;15.60;99.90;;;;;;5050159;28;19928;-79
2022/09/09 04:16:44;;;;;;;;;;;15.70;99.90;;;;;;5053527;28;19920;-80
2022/09/09 04:19:12;;;;;;;;;;;15.70;99.90;;;;;;5054393;28;20455;-79
2022/09/09 04:21:39;;;;;;;;;;;15.80;99.90;;;;;;5049989;28;21381;-79
2022/09/09 04:24:05;;;;;;;;;;;15.90;99.90;;;;;;5050440;28;19916;-79
2022/09/09 04:26:30;;;;;;;;;;;16.10;99.90;;;;;;5050798;28;20434;-80
2022/09/09 04:28:56;;;;;;;;;;;16.20;99.90;;;;;;5055756;28;19913;-79
2022/09/09 04:31:23;;;;;;;;;;;16.20;99.90;;;;;;5068596;28;20226;-79
2022/09/09 04:33:49;;;;;;;;;;;16.20;99.90;;;;;;5054328;28;19916;-78
2022/09/09 04:36:15;;;;;;;;;;;16.10;99.90;;;;;;5050371;28;20287;-79
2022/09/09 04:38:40;;;;;;;;;;;16.20;99.90;;;;;;5055838;28;19916;-80
2022/09/09 04:41:07;;;;;;;;;;;16.20;99.90;;;;;;5059335;28;19931;-79
2022/09/09 04:43:33;;;;;;;;;;;16.20;99.90;;;;;;5051914;28;20000;-79
2022/09/09 04:46:01;;;;;;;;;;;16.10;99.90;;;;;;5049617;28;19917;-81
2022/09/09 04:48:27;;;;;;;;;;;15.90;99.90;;;;;;5053137;28;19916;-80
2022/09/09 04:50:55;;;;;;;;;;;15.70;99.90;;;;;;5052989;28;19928;-80
2022/09/09 04:53:21;;;;;;;;;;;15.50;99.90;;;;;;5056638;28;19920;-80
2022/09/09 04:55:48;;;;;;;;;;;15.50;99.90;;;;;;5049294;28;19913;-79
2022/09/09 04:58:14;;;;;;;;;;;15.50;99.90;;;;;;5056708;28;19920;-79
2022/09/09 05:00:39;;;;;;;;;;;15.40;99.90;;;;;;5060748;28;20419;-79
2022/09/09 05:03:05;;;;;;;;;;;15.40;99.90;;;;;;5103207;27;19916;-79
2022/09/09 05:05:33;;;;;;;;;;;15.40;99.90;;;;;;5053400;28;20403;-80
2022/09/09 05:08:03;;;;;;;;;;;15.30;99.90;;;;;;5052654;28;19970;-80
2022/09/09 05:10:28;;;;;;;;;;;15.30;99.90;;;;;;5051009;28;19916;-80
2022/09/09 05:12:54;;;;;;;;;;;15.40;99.90;;;;;;5049381;28;20610;-80
2022/09/09 05:15:21;;;;;;;;;;;15.50;99.90;;;;;;5048141;28;19917;-79
2022/09/09 05:17:46;;;;;;;;;;;15.60;99.90;;;;;;5055566;28;20750;-79
2022/09/09 05:20:12;;;;;;;;;;;15.70;99.90;;;;;;5052533;28;19916;-80
2022/09/09 05:22:37;;;;;;;;;;;15.60;99.90;;;;;;5053237;28;19921;-81
2022/09/09 05:25:03;;;;;;;;;;;15.60;99.90;;;;;;5051152;28;19936;-80
2022/09/09 05:27:31;;;;;;;;;;;15.50;99.90;;;;;;5059481;28;20384;-80
2022/09/09 05:29:57;;;;;;;;;;;15.50;99.90;;;;;;5060770;28;20714;-79
2022/09/09 05:32:22;;;;;;;;;;;15.40;99.90;;;;;;5063455;28;19927;-80
2022/09/09 05:34:48;;;;;;;;;;;15.40;99.90;;;;;;5061118;28;19917;-80
2022/09/09 05:37:13;;;;;;;;;;;15.40;99.90;;;;;;5057382;28;19917;-80
2022/09/09 05:39:39;;;;;;;;;;;15.30;99.90;;;;;;5055019;28;19917;-80
2022/09/09 05:42:05;;;;;;;;;;;15.40;99.90;;;;;;5071573;28;19924;-79
2022/09/09 05:44:30;;;;;;;;;;;15.40;99.90;;;;;;5066534;28;19942;-81
2022/09/09 05:46:57;;;;;;;;;;;15.50;99.90;;;;;;5063148;28;20573;-79
2022/09/09 05:49:23;;;;;;;;;;;15.50;99.90;;;;;;5058382;28;19921;-80
2022/09/09 05:51:50;;;;;;;;;;;15.50;99.90;;;;;;5051443;28;19920;-80
2022/09/09 05:54:15;;;;;;;;;;;15.70;99.90;;;;;;5062083;28;19924;-79
2022/09/09 05:56:41;;;;;;;;;;;15.90;99.90;;;;;;5056482;28;19971;-80
2022/09/09 05:59:07;;;;;;;;;;;15.80;99.90;;;;;;5052250;28;20405;-79
2022/09/09 06:01:33;;;;;;;;;;;16.00;99.90;;;;;;5072078;28;19924;-79
2022/09/09 06:03:59;;;;;;;;;;;16.20;99.90;;;;;;5062908;28;20039;-80
2022/09/09 06:06:26;;;;;;;;;;;16.10;99.90;;;;;;5052949;28;19916;-79
2022/09/09 06:08:52;;;;;;;;;;;16.00;99.90;;;;;;5055256;28;19917;-79
2022/09/09 06:11:22;;;;;;;;;;;16.00;99.90;;;;;;5054258;28;20585;-79
2022/09/09 06:13:51;;;;;;;;;;;16.00;99.90;;;;;;5056599;28;19916;-80
2022/09/09 06:16:17;;;;;;;;;;;15.90;99.90;;;;;;5058072;28;19917;-79
2022/09/09 06:18:43;;;;;;;;;;;15.80;99.90;;;;;;5064106;28;19920;-80
2022/09/09 06:21:11;;;;;;;;;;;15.90;99.90;;;;;;5056241;28;20752;-81
2022/09/09 06:23:40;;;;;;;;;;;17.50;99.90;;;;;;5052934;28;19916;-79
2022/09/09 06:26:05;;;;;;;;;;;18.50;99.90;;;;;;5052198;28;20448;-80
2022/09/09 06:28:35;;;;;;;;;;;19.30;99.90;;;;;;5056033;28;20012;-80
2022/09/09 06:31:01;;;;;;;;;;;20.60;99.90;;;;;;5061070;28;19922;-80
2022/09/09 06:33:30;;;;;;;;;;;20.50;99.90;;;;;;5060144;28;19912;-79
2022/09/09 06:35:56;;;;;;;;;;;20.80;99.90;;;;;;5049461;28;20503;-80
2022/09/09 06:38:22;;;;;;;;;;;20.40;99.90;;;;;;5060414;28;19919;-79
2022/09/09 06:40:55;;;;;;;;;;;20.20;99.90;;;;;;5075993;28;19920;-79
2022/09/09 06:43:21;;;;;;;;;;;21.00;99.90;;;;;;5080580;28;19916;-80
2022/09/09 06:46:00;;;;;;;;;;;21.30;99.90;;;;;;5083624;28;19912;-79
2022/09/09 06:48:26;;;;;;;;;;;21.80;99.90;;;;;;5046349;28;19942;-80
2022/09/09 06:51:06;;;;;;;;;;;21.20;99.90;;;;;;5052922;28;19908;-79
2022/09/09 06:53:33;;;;;;;;;;;20.60;99.90;;;;;;5066606;28;20569;-79
2022/09/09 06:56:00;;;;;;;;;;;20.20;99.90;;;;;;5066028;28;19923;-80
2022/09/09 06:58:26;;;;;;;;;;;20.20;99.90;;;;;;5070434;28;19927;-80
2022/09/09 07:00:52;;;;;;;;;;;19.90;99.90;;;;;;5086327;28;19920;-80
2022/09/09 07:03:18;;;;;;;;;;;19.70;99.90;;;;;;5080435;28;20008;-80
2022/09/09 07:05:53;;;;;;;;;;;19.40;99.90;;;;;;5074760;28;19998;-81
2022/09/09 07:08:18;;;;;;;;;;;19.30;99.90;;;;;;5058227;28;20008;-80
2022/09/09 07:10:44;;;;;;;;;;;21.20;99.90;;;;;;5080764;28;20415;-81
2022/09/09 07:13:10;;;;;;;;;;;21.30;99.90;;;;;;5072315;28;20391;-80
2022/09/09 07:15:35;;;;;;;;;;;20.60;99.90;;;;;;5061843;28;19916;-82
2022/09/09 07:18:02;;;;;;;;;;;21.70;99.90;;;;;;5067256;28;20651;-81
2022/09/09 07:20:27;;;;;;;;;;;20.60;99.90;;;;;;5085684;28;20108;-80
2022/09/09 07:22:54;;;;;;;;;;;21.00;99.90;;;;;;5066566;28;20002;-80
2022/09/09 07:25:20;;;;;;;;;;;22.20;99.90;;;;;;5085007;28;19957;-82
2022/09/09 07:27:46;;;;;;;;;;;20.90;99.90;;;;;;5085221;28;19995;-81
2022/09/09 07:30:11;;;;;;;;;;;19.90;99.90;;;;;;5085110;28;19939;-80
2022/09/09 07:32:37;;;;;;;;;;;19.70;99.90;;;;;;5085070;28;19930;-80
2022/09/09 07:35:03;;;;;;;;;;;19.40;99.90;;;;;;5066696;28;19982;-81
2022/09/09 07:37:28;;;;;;;;;;;19.10;99.90;;;;;;5085101;28;19912;-81
2022/09/09 07:39:54;;;;;;;;;;;18.90;99.90;;;;;;5084427;28;19954;-80
2022/09/09 07:42:19;;;;;;;;;;;18.80;99.90;;;;;;5076563;28;19921;-80
2022/09/09 07:44:45;;;;;;;;;;;18.80;99.90;;;;;;5065392;28;19912;-80
2022/09/09 07:47:11;;;;;;;;;;;19.10;99.90;;;;;;5065304;28;19913;-81
2022/09/09 07:49:36;;;;;;;;;;;19.60;99.90;;;;;;5065195;28;19912;-81
2022/09/09 07:52:03;;;;;;;;;;;20.70;99.90;;;;;;5065027;28;19999;-81
2022/09/09 07:54:28;;;;;;;;;;;21.70;99.90;;;;;;5064985;28;19947;-81
2022/09/09 07:56:54;;;;;;;;;;;21.60;99.90;;;;;;5065147;28;19963;-81
2022/09/09 07:59:19;;;;;;;;;;;21.90;99.90;;;;;;5053180;28;20855;-80
2022/09/09 08:01:46;;;;;;;;;;;22.20;99.90;;;;;;5063074;28;19971;-81
2022/09/09 08:04:15;;;;;;;;;;;23.20;99.90;;;;;;5064814;28;19923;-80
2022/09/09 08:06:42;;;;;;;;;;;22.20;99.90;;;;;;5063967;28;19935;-81
2022/09/09 08:09:08;;;;;;;;;;;22.30;99.90;;;;;;5063200;28;19938;-80
2022/09/09 08:11:35;;;;;;;;;;;25.00;99.90;;;;;;5064814;28;19994;-81
2022/09/09 08:14:01;;;;;;;;;;;26.10;99.90;;;;;;5064746;28;19959;-81
2022/09/09 08:16:32;;;;;;;;;;;26.70;99.30;;;;;;5064492;28;19951;-81
2022/09/09 08:18:58;;;;;;;;;;;27.70;98.40;;;;;;5064295;28;19909;-80
2022/09/09 08:21:26;;;;;;;;;;;27.20;98.70;;;;;;5074028;28;19928;-81
2022/09/09 08:23:53;;;;;;;;;;;27.20;98.50;;;;;;5044250;28;19939;-80
2022/09/09 08:26:22;;;;;;;;;;;26.80;97.70;;;;;;5044487;28;19939;-81
2022/09/09 08:28:49;;;;;;;;;;;27.40;97.60;;;;;;5078847;28;19912;-81
2022/09/09 08:31:16;;;;;;;;;;;27.60;96.90;;;;;;5076948;28;19916;-81
2022/09/09 08:33:43;;;;;;;;;;;29.40;94.30;;;;;;5072747;28;20401;-80
2022/09/09 08:36:10;;;;;;;;;;;27.10;95.90;;;;;;5055282;28;19917;-81
2022/09/09 08:38:37;;;;;;;;;;;25.80;96.60;;;;;;5073868;28;20006;-81
2022/09/09 08:41:22;;;;;;;;;;;24.30;99.40;;;;;;5053391;28;20476;-80
2022/09/09 08:43:50;;;;;;;;;;;25.00;99.60;;;;;;5032769;28;20056;-79
2022/09/09 08:46:24;;;;;;;;;;;25.90;98.30;;;;;;5040768;28;20397;-79
2022/09/09 08:49:10;;;;;;;;;;;27.20;96.60;;;;;;5040775;28;19947;-80
2022/09/09 08:51:36;;;;;;;;;;;27.80;94.40;;;;;;5040677;28;20027;-80
2022/09/09 08:54:02;;;;;;;;;;;27.90;92.70;;;;;;5040947;28;19995;-79
2022/09/09 08:56:31;;;;;;;;;;;29.30;93.10;;;;;;5040776;28;19936;-81
2022/09/09 08:58:57;;;;;;;;;;;28.40;90.00;;;;;;5041061;28;19951;-80
2022/09/09 09:01:43;;;;;;;;;;;28.90;91.20;;;;;;5040680;28;20190;-80
2022/09/09 09:04:27;;;;;;;;;;;27.40;90.90;;;;;;5029737;28;19919;-80
2022/09/09 09:06:55;;;;;;;;;;;25.80;95.60;;;;;;5039973;28;20321;-81
2022/09/09 09:09:27;;;;;;;;;;;29.10;90.40;;;;;;5040162;28;19920;-80
2022/09/09 09:11:54;;;;;;;;;;;29.40;90.30;;;;;;5040724;28;19994;-79
2022/09/09 09:14:24;;;;;;;;;;;27.00;91.70;;;;;;5040641;28;20682;-80
2022/09/09 09:17:00;;;;;;;;;;;27.90;90.10;;;;;;5040362;28;19913;-80
2022/09/09 09:19:26;;;;;;;;;;;25.70;92.00;;;;;;5040381;28;19913;-80
2022/09/09 09:22:03;;;;;;;;;;;27.70;92.70;;;;;;5042916;28;19966;-80
2022/09/09 09:24:32;;;;;;;;;;;30.00;87.50;;;;;;5044167;28;20699;-80
2022/09/09 09:27:01;;;;;;;;;;;28.70;83.70;;;;;;5043741;28;19916;-79
2022/09/09 09:29:26;;;;;;;;;;;25.60;87.50;;;;;;5044274;28;20492;-80
2022/09/09 09:31:55;;;;;;;;;;;25.40;90.80;;;;;;5043568;28;19925;-80
2022/09/09 09:34:21;;;;;;;;;;;25.00;91.80;;;;;;5043688;28;19959;-80
2022/09/09 09:36:52;;;;;;;;;;;25.60;92.10;;;;;;5043201;28;19940;-80
2022/09/09 09:39:24;;;;;;;;;;;28.90;87.20;;;;;;5043557;28;19935;-81
2022/09/09 09:41:50;;;;;;;;;;;31.10;78.60;;;;;;5047701;28;19931;-80
2022/09/09 09:44:29;;;;;;;;;;;29.00;78.60;;;;;;5064066;28;19912;-80
2022/09/09 09:47:06;;;;;;;;;;;26.50;87.00;;;;;;5063040;28;19916;-80
2022/09/09 09:49:32;;;;;;;;;;;25.30;87.40;;;;;;5062791;28;19913;-79
2022/09/09 09:52:04;;;;;;;;;;;24.20;88.40;;;;;;5063381;28;19966;-79
2022/09/09 09:54:32;;;;;;;;;;;23.50;90.70;;;;;;5063194;28;19966;-79
2022/09/09 09:57:11;;;;;;;;;;;23.40;90.90;;;;;;5059426;28;19936;-78
2022/09/09 09:59:39;;;;;;;;;;;25.10;90.20;;;;;;5074523;28;19935;-79
2022/09/09 10:02:18;;;;;;;;;;;24.90;87.50;;;;;;5076178;28;19924;-78
2022/09/09 10:04:47;;;;;;;;;;;23.40;91.90;;;;;;5072059;28;19917;-78
2022/09/09 10:07:17;;;;;;;;;;;22.90;93.80;;;;;;5073373;28;19916;-80
2022/09/09 10:09:42;;;;;;;;;;;22.60;95.10;;;;;;5070286;28;19917;-80
2022/09/09 10:12:24;;;;;;;;;;;22.40;96.00;;;;;;5063230;28;19919;-78
2022/09/09 10:14:50;;;;;;;;;;;22.40;95.80;;;;;;5067215;28;20018;-78
2022/09/09 10:17:16;;;;;;;;;;;22.00;96.60;;;;;;5057589;28;20444;-78
2022/09/09 10:19:50;;;;;;;;;;;22.10;96.70;;;;;;5058622;28;20286;-77
2022/09/09 10:22:19;;;;;;;;;;;23.00;98.40;;;;;;5046855;28;20357;-77
2022/09/09 10:24:48;;;;;;;;;;;22.80;97.00;;;;;;5062082;28;19927;-78
2022/09/09 10:27:25;;;;;;;;;;;22.90;97.50;;;;;;5073076;28;19971;-78
2022/09/09 10:30:20;;;;;;;;;;;23.50;96.80;;;;;;5073929;28;19916;-78
2022/09/09 10:33:00;;;;;;;;;;;23.40;98.00;;;;;;5063709;28;19916;-79
2022/09/09 10:35:29;;;;;;;;;;;23.80;96.20;;;;;;5062440;28;20004;-78
2022/09/09 10:38:00;;;;;;;;;;;23.40;93.70;;;;;;5054127;28;19921;-78
2022/09/09 10:40:42;;;;;;;;;;;23.80;93.10;;;;;;5057437;28;19920;-77
2022/09/09 10:43:10;;;;;;;;;;;23.30;93.40;;;;;;5066919;28;19946;-77
2022/09/09 10:45:42;;;;;;;;;;;22.20;95.50;;;;;;5064832;28;19912;-77
2022/09/09 10:48:14;;;;;;;;;;;21.90;96.30;;;;;;5065393;28;19912;-77
2022/09/09 10:50:48;;;;;;;;;;;22.50;95.70;;;;;;5066403;28;19912;-77
2022/09/09 10:53:33;;;;;;;;;;;22.00;95.70;;;;;;5063164;28;20817;-77
2022/09/09 10:56:04;;;;;;;;;;;21.90;96.30;;;;;;5065508;28;19916;-77
2022/09/09 10:58:34;;;;;;;;;;;21.90;96.50;;;;;;5064757;28;19928;-78
2022/09/09 11:01:07;;;;;;;;;;;22.00;96.50;;;;;;5066095;28;19931;-78
2022/09/09 11:03:35;;;;;;;;;;;22.20;94.70;;;;;;5064854;28;20405;-78
2022/09/09 11:06:05;;;;;;;;;;;22.40;94.10;;;;;;5064613;28;19916;-77
2022/09/09 11:08:33;;;;;;;;;;;23.00;93.00;;;;;;5063027;28;19917;-78
2022/09/09 11:11:01;;;;;;;;;;;23.20;92.00;;;;;;5064765;28;19955;-76
2022/09/09 11:13:32;;;;;;;;;;;23.10;91.60;;;;;;5065347;28;19924;-77
2022/09/09 11:16:00;;;;;;;;;;;23.50;91.10;;;;;;5094182;27;19923;-78
2022/09/09 11:18:28;;;;;;;;;;;22.80;89.80;;;;;;5067159;28;19994;-78
2022/09/09 11:20:58;;;;;;;;;;;23.10;91.60;;;;;;5072451;28;19933;-78
2022/09/09 11:23:32;;;;;;;;;;;23.10;90.30;;;;;;5056017;28;19921;-78
2022/09/09 11:26:03;;;;;;;;;;;23.40;90.40;;;;;;5050568;28;19928;-78
2022/09/09 11:28:28;;;;;;;;;;;23.40;91.00;;;;;;5050016;28;19920;-78
2022/09/09 11:31:12;;;;;;;;;;;23.00;90.80;;;;;;5050730;28;20436;-78
2022/09/09 11:33:41;;;;;;;;;;;23.20;90.50;;;;;;5065419;28;19969;-77
2022/09/09 11:36:13;;;;;;;;;;;23.10;90.40;;;;;;5079534;28;19916;-78
2022/09/09 11:38:39;;;;;;;;;;;23.30;90.30;;;;;;5050987;28;19916;-78
2022/09/09 11:41:07;;;;;;;;;;;23.50;89.70;;;;;;5054046;28;19925;-78
2022/09/09 11:43:42;;;;;;;;;;;23.70;86.70;;;;;;5050244;28;20038;-78
2022/09/09 11:46:09;;;;;;;;;;;23.60;85.70;;;;;;5051435;28;19917;-77
2022/09/09 11:48:37;;;;;;;;;;;23.40;88.30;;;;;;5057410;28;20026;-77
2022/09/09 11:51:07;;;;;;;;;;;23.50;87.60;;;;;;5067010;28;20374;-77
2022/09/09 11:53:34;;;;;;;;;;;23.60;86.40;;;;;;5064202;28;19916;-77
2022/09/09 11:56:10;;;;;;;;;;;24.00;86.00;;;;;;5088940;28;20018;-78
2022/09/09 11:58:55;;;;;;;;;;;23.90;86.20;;;;;;5043832;28;19927;-77
2022/09/09 12:01:32;;;;;;;;;;;23.70;87.20;;;;;;5058794;28;20034;-77
2022/09/09 12:04:01;;;;;;;;;;;24.30;89.10;;;;;;5095743;28;19916;-78
2022/09/09 12:06:31;;;;;;;;;;;24.50;86.90;;;;;;5060138;28;19916;-77
2022/09/09 12:09:17;;;;;;;;;;;24.60;86.40;;;;;;5063336;28;20339;-77
2022/09/09 12:11:43;;;;;;;;;;;24.80;87.40;;;;;;5060879;28;19916;-78
2022/09/09 12:14:18;;;;;;;;;;;25.00;88.80;;;;;;5063485;28;19924;-77
2022/09/09 12:16:44;;;;;;;;;;;24.70;86.30;;;;;;5063124;28;20444;-76
2022/09/09 12:19:16;;;;;;;;;;;24.60;86.90;;;;;;5057517;28;19917;-76
2022/09/09 12:21:54;;;;;;;;;;;24.50;86.50;;;;;;5048723;28;19968;-77
2022/09/09 12:24:30;;;;;;;;;;;24.70;86.90;;;;;;5053505;28;19921;-77
2022/09/09 12:27:05;;;;;;;;;;;24.70;85.50;;;;;;5055650;28;19920;-78
2022/09/09 12:29:34;;;;;;;;;;;24.80;88.70;;;;;;5054350;28;19916;-77
2022/09/09 12:32:07;;;;;;;;;;;24.90;84.10;;;;;;5069326;28;20381;-78
2022/09/09 12:35:08;;;;;;;;;;;25.10;83.50;;;;;;5052465;28;19916;-77
2022/09/09 12:37:39;;;;;;;;;;;24.70;83.50;;;;;;5045190;28;20007;-77
2022/09/09 12:40:22;;;;;;;;;;;24.40;85.90;;;;;;5023246;28;20510;-77
2022/09/09 12:42:47;;;;;;;;;;;24.20;86.60;;;;;;5040961;28;19952;-77
2022/09/09 12:45:17;;;;;;;;;;;24.00;89.30;;;;;;5024166;28;20285;-78
2022/09/09 12:47:49;;;;;;;;;;;24.30;89.70;;;;;;5053014;28;19916;-76
2022/09/09 12:50:20;;;;;;;;;;;23.70;85.60;;;;;;5040336;28;19959;-76
2022/09/09 12:52:47;;;;;;;;;;;23.90;88.70;;;;;;5045610;28;20611;-77
2022/09/09 12:55:17;;;;;;;;;;;23.80;89.50;;;;;;5060781;28;20742;-77
2022/09/09 12:57:43;;;;;;;;;;;23.80;88.90;;;;;;5060851;28;20331;-77
2022/09/09 13:00:16;;;;;;;;;;;24.00;86.30;;;;;;5053599;28;19924;-78
2022/09/09 13:02:47;;;;;;;;;;;23.80;87.40;;;;;;5040538;28;20534;-76
2022/09/09 13:05:15;;;;;;;;;;;23.80;87.40;;;;;;5045857;28;19916;-78
2022/09/09 13:07:40;;;;;;;;;;;23.60;87.30;;;;;;5046261;28;19917;-77
2022/09/09 13:10:10;;;;;;;;;;;23.60;87.60;;;;;;5058492;28;20766;-77
2022/09/09 13:12:35;;;;;;;;;;;23.30;88.60;;;;;;5059173;28;19943;-77
2022/09/09 13:15:02;;;;;;;;;;;23.20;89.70;;;;;;5063124;28;20301;-77
2022/09/09 13:17:30;;;;;;;;;;;22.90;88.40;;;;;;5063521;28;19916;-77
2022/09/09 13:19:56;;;;;;;;;;;23.10;89.30;;;;;;5068325;28;20292;-77
2022/09/09 13:22:33;;;;;;;;;;;22.80;90.60;;;;;;5074629;28;19927;-77
2022/09/09 13:25:02;;;;;;;;;;;23.00;90.50;;;;;;5074710;28;19920;-78
2022/09/09 13:27:30;;;;;;;;;;;23.20;90.30;;;;;;5073125;28;20343;-78
2022/09/09 13:29:56;;;;;;;;;;;23.20;91.50;;;;;;5075664;28;19916;-77
2022/09/09 13:32:23;;;;;;;;;;;23.20;92.10;;;;;;5079877;28;19927;-77
2022/09/09 13:34:56;;;;;;;;;;;22.90;92.10;;;;;;5080789;28;19916;-76
2022/09/09 13:37:41;;;;;;;;;;;22.90;92.20;;;;;;5077221;28;19920;-77
2022/09/09 13:40:16;;;;;;;;;;;22.80;91.40;;;;;;5078137;28;19920;-76
2022/09/09 13:42:42;;;;;;;;;;;22.70;92.20;;;;;;5079228;28;19924;-77
2022/09/09 13:45:20;;;;;;;;;;;22.80;91.90;;;;;;5081562;28;19938;-77
2022/09/09 13:47:46;;;;;;;;;;;22.70;91.30;;;;;;5083230;28;19912;-75
2022/09/09 13:50:25;;;;;;;;;;;23.00;91.90;;;;;;5066324;28;19920;-76
2022/09/09 13:52:58;;;;;;;;;;;22.90;91.60;;;;;;5066409;28;20342;-77
2022/09/09 13:55:24;;;;;;;;;;;22.50;90.40;;;;;;5067023;28;19917;-76
2022/09/09 13:57:51;;;;;;;;;;;22.50;91.30;;;;;;5082219;28;19916;-76
2022/09/09 14:00:17;;;;;;;;;;;22.30;90.30;;;;;;5076744;28;19925;-76
2022/09/09 14:02:43;;;;;;;;;;;22.20;88.50;;;;;;5065508;28;19925;-75
2022/09/09 14:05:10;;;;;;;;;;;22.50;90.20;;;;;;5065067;28;19961;-76
2022/09/09 14:07:38;;;;;;;;;;;22.70;90.10;;;;;;5064660;28;20348;-76
2022/09/09 14:10:04;;;;;;;;;;;22.60;89.30;;;;;;5066049;28;19917;-75
2022/09/09 14:12:29;;;;;;;;;;;22.90;88.90;;;;;;5063410;28;19916;-75
2022/09/09 14:14:55;;;;;;;;;;;23.10;88.00;;;;;;5048673;28;19923;-76
2022/09/09 14:17:22;;;;;;;;;;;23.10;87.10;;;;;;5044748;28;19912;-75
2022/09/09 14:19:47;;;;;;;;;;;22.70;87.00;;;;;;5044991;28;19919;-76
2022/09/09 14:22:13;;;;;;;;;;;22.70;88.90;;;;;;5050847;28;19928;-74
2022/09/09 14:24:39;;;;;;;;;;;22.60;88.90;;;;;;5044445;28;19955;-76
2022/09/09 14:27:04;;;;;;;;;;;22.20;89.40;;;;;;5044016;28;19912;-75
2022/09/09 14:29:30;;;;;;;;;;;22.50;89.40;;;;;;5048279;28;19917;-75